Time;durP1;ratioP1;P1;durP2;ratioP2;P2;SDS_P1;SDS_P2;PMS_P1;PMS_P2;Temp;Humidity;BMP_temperature;BMP_pressure;BME280_temperature;BME280_humidity;BME280_pressure;Samples;Min_cycle;Max_cycle;Signal;HPM_P1;HPM_P2
2022/09/11 01:00:15;;;;;;;10.15;6.57;;;12.20;99.90;;;;;;5552556;22;20046;-78
2022/09/11 01:02:43;;;;;;;10.63;7.65;;;12.10;99.90;;;;;;4993297;28;20031;-79
2022/09/11 01:05:11;;;;;;;11.85;7.25;;;12.10;99.90;;;;;;4979095;28;20458;-79
2022/09/11 01:07:39;;;;;;;15.38;7.40;;;12.10;99.90;;;;;;4993266;28;20032;-78
2022/09/11 01:10:06;;;;;;;12.00;7.47;;;12.20;99.90;;;;;;4992999;28;20035;-79
2022/09/11 01:12:41;;;;;;;10.32;7.13;;;12.10;99.90;;;;;;4993337;28;20093;-79
2022/09/11 01:15:11;;;;;;;13.85;7.28;;;12.00;99.90;;;;;;4978623;28;20031;-79
2022/09/11 01:17:55;;;;;;;11.38;7.18;;;12.00;99.90;;;;;;4992651;28;20018;-78
2022/09/11 01:20:59;;;;;;;9.98;6.63;;;11.90;99.90;;;;;;4992694;28;20046;-79
2022/09/11 01:23:59;;;;;;;10.93;7.30;;;11.90;99.90;;;;;;4981400;28;20422;-79
2022/09/11 01:26:45;;;;;;;11.48;7.05;;;11.90;99.90;;;;;;4985673;28;20426;-79
2022/09/11 01:29:17;;;;;;;12.50;7.53;;;12.00;99.90;;;;;;4992462;28;20049;-79
2022/09/11 01:32:12;;;;;;;13.32;8.07;;;11.90;99.90;;;;;;4990331;28;20509;-79
2022/09/11 01:34:53;;;;;;;11.43;8.10;;;11.90;99.90;;;;;;4985866;28;20402;-79
2022/09/11 01:37:30;;;;;;;11.13;7.93;;;11.80;99.90;;;;;;4992566;28;20026;-79
2022/09/11 01:40:04;;;;;;;12.35;7.55;;;11.70;99.90;;;;;;4992625;28;20031;-79
2022/09/11 01:42:33;;;;;;;8.98;7.13;;;11.80;99.90;;;;;;4981105;28;20471;-79
2022/09/11 01:45:00;;;;;;;11.48;7.68;;;11.80;99.90;;;;;;4992562;28;20112;-79
2022/09/11 01:47:28;;;;;;;10.45;7.07;;;11.70;99.90;;;;;;4992327;28;20025;-79
2022/09/11 01:50:01;;;;;;;14.63;7.90;;;11.70;99.90;;;;;;4992373;28;20018;-79
2022/09/11 01:52:32;;;;;;;10.35;7.03;;;11.80;99.90;;;;;;4979966;28;20093;-79
2022/09/11 01:55:09;;;;;;;12.88;7.22;;;11.80;99.90;;;;;;4992097;28;20028;-79
2022/09/11 01:57:45;;;;;;;8.82;7.57;;;11.80;99.90;;;;;;4990977;28;20027;-79
2022/09/11 02:59:50;;;;;;;14.98;9.95;;;11.60;99.90;;;;;;5855855;22;20059;-79
2022/09/11 03:02:17;;;;;;;20.00;10.02;;;11.50;99.90;;;;;;4987571;28;20018;-79
2022/09/11 03:04:43;;;;;;;14.95;9.63;;;11.50;99.90;;;;;;4989141;28;20470;-79
2022/09/11 03:07:08;;;;;;;15.23;8.50;;;11.50;99.90;;;;;;4990914;28;20025;-79
2022/09/11 03:09:34;;;;;;;15.07;9.00;;;11.50;99.90;;;;;;4990832;28;20026;-79
2022/09/11 03:12:01;;;;;;;12.02;8.27;;;11.40;99.90;;;;;;4990787;28;20026;-79
2022/09/11 03:14:27;;;;;;;12.70;9.05;;;11.40;99.90;;;;;;4991024;28;20384;-79
2022/09/11 03:16:55;;;;;;;12.48;7.95;;;11.40;99.90;;;;;;4990944;28;20090;-79
2022/09/11 03:19:21;;;;;;;11.93;8.60;;;11.40;99.90;;;;;;4990723;28;20117;-79
2022/09/11 03:21:47;;;;;;;11.45;8.75;;;11.40;99.90;;;;;;4989491;28;20113;-79
2022/09/11 03:24:13;;;;;;;14.65;9.30;;;11.30;99.90;;;;;;4991221;28;20030;-80
2022/09/11 03:26:39;;;;;;;12.63;8.48;;;11.20;99.90;;;;;;4990327;28;20050;-79
2022/09/11 03:29:07;;;;;;;12.38;8.60;;;11.20;99.90;;;;;;4990458;28;20471;-79
2022/09/11 03:31:32;;;;;;;20.77;9.52;;;11.20;99.90;;;;;;4990448;28;20022;-79
2022/09/11 03:33:58;;;;;;;17.58;9.43;;;11.10;99.90;;;;;;4990591;28;20027;-79
2022/09/11 03:36:24;;;;;;;14.02;9.77;;;11.10;99.90;;;;;;4990721;28;20511;-79
2022/09/11 03:38:51;;;;;;;15.60;9.40;;;11.10;99.90;;;;;;4992845;28;20026;-79
2022/09/11 03:41:17;;;;;;;14.35;9.77;;;11.10;99.90;;;;;;4994548;28;20033;-79
2022/09/11 03:43:43;;;;;;;14.07;8.70;;;11.00;99.90;;;;;;4994834;28;20126;-79
2022/09/11 03:46:09;;;;;;;10.55;8.15;;;11.00;99.90;;;;;;4994916;28;20535;-79
2022/09/11 03:48:35;;;;;;;12.80;8.00;;;11.00;99.90;;;;;;4994623;28;20019;-79
2022/09/11 03:51:01;;;;;;;14.07;8.45;;;11.00;99.90;;;;;;4994427;28;20054;-79
2022/09/11 03:53:27;;;;;;;12.15;8.35;;;11.00;99.90;;;;;;4994906;28;20387;-80
2022/09/11 03:55:53;;;;;;;14.35;8.48;;;11.00;99.90;;;;;;4994095;28;20026;-79
2022/09/11 03:58:19;;;;;;;16.48;9.48;;;10.90;99.90;;;;;;4993836;28;20486;-79
2022/09/11 05:00:18;;;;;;;13.98;9.38;;;10.40;99.90;;;;;;5630432;22;20168;-79
2022/09/11 05:02:46;;;;;;;17.85;9.77;;;10.30;99.90;;;;;;4993378;28;20495;-79
2022/09/11 05:05:12;;;;;;;17.10;8.75;;;10.30;99.90;;;;;;4993264;28;20033;-79
2022/09/11 05:07:38;;;;;;;17.58;9.48;;;10.20;99.90;;;;;;4992590;28;20015;-79
2022/09/11 05:10:04;;;;;;;14.55;9.02;;;10.20;99.90;;;;;;4992725;28;20045;-79
2022/09/11 05:12:30;;;;;;;11.02;8.15;;;10.20;99.90;;;;;;4993377;28;20101;-79
2022/09/11 05:14:56;;;;;;;12.52;8.60;;;10.20;99.90;;;;;;4992457;28;20018;-79
2022/09/11 05:17:22;;;;;;;11.40;8.52;;;10.20;99.90;;;;;;4992473;28;20034;-79
2022/09/11 05:19:48;;;;;;;12.82;8.15;;;10.20;99.90;;;;;;4992678;28;20068;-79
2022/09/11 05:22:14;;;;;;;13.48;8.88;;;10.20;99.90;;;;;;4992812;28;20023;-79
2022/09/11 05:24:40;;;;;;;16.80;8.30;;;10.30;99.90;;;;;;4991552;28;20026;-79
2022/09/11 05:27:07;;;;;;;11.10;7.70;;;10.30;99.90;;;;;;4992748;28;20106;-79
2022/09/11 05:29:32;;;;;;;10.27;7.57;;;10.30;99.90;;;;;;4991971;28;20126;-79
2022/09/11 05:31:58;;;;;;;12.15;8.43;;;10.20;99.90;;;;;;4990560;28;20156;-79
2022/09/11 05:34:27;;;;;;;13.93;8.90;;;10.20;99.90;;;;;;4992502;28;20038;-79
2022/09/11 05:36:56;;;;;;;12.20;8.25;;;10.10;99.90;;;;;;4974256;28;20372;-79
2022/09/11 05:39:22;;;;;;;12.20;7.82;;;10.20;99.90;;;;;;4991557;28;20561;-79
2022/09/11 05:41:52;;;;;;;14.63;8.70;;;10.20;99.90;;;;;;4992316;28;20030;-79
2022/09/11 05:44:18;;;;;;;17.98;9.07;;;10.20;99.90;;;;;;4992610;28;20026;-79
2022/09/11 05:46:45;;;;;;;16.73;9.63;;;10.30;99.90;;;;;;4992511;28;20093;-79
2022/09/11 05:49:11;;;;;;;17.58;10.30;;;10.40;99.90;;;;;;4992318;28;20483;-79
2022/09/11 05:51:39;;;;;;;15.90;9.65;;;10.40;99.90;;;;;;4992209;28;20022;-79
2022/09/11 05:54:04;;;;;;;18.08;9.85;;;10.50;99.90;;;;;;4992112;28;20019;-79
2022/09/11 05:56:30;;;;;;;15.50;9.48;;;10.60;99.90;;;;;;4992388;28;20391;-79
2022/09/11 05:58:59;;;;;;;15.13;9.85;;;10.70;99.90;;;;;;4992289;28;20031;-79
2022/09/11 07:30:02;;;;;;;19.38;11.02;;;14.40;99.90;;;;;;5826582;22;20050;-78
2022/09/11 07:32:28;;;;;;;22.67;11.65;;;14.50;99.90;;;;;;4968973;28;20026;-79
2022/09/11 07:34:53;;;;;;;22.00;12.27;;;14.50;99.90;;;;;;4969023;28;20019;-77
2022/09/11 07:37:19;;;;;;;20.35;11.13;;;14.60;99.90;;;;;;4964976;28;20023;-77
2022/09/11 07:39:45;;;;;;;20.98;11.25;;;14.70;99.90;;;;;;4964751;28;20042;-78
2022/09/11 07:42:11;;;;;;;22.17;11.90;;;14.80;99.90;;;;;;4953842;28;20019;-77
2022/09/11 07:44:37;;;;;;;17.08;10.60;;;15.00;99.90;;;;;;4957951;28;20030;-78
2022/09/11 07:47:03;;;;;;;15.80;9.80;;;15.10;99.90;;;;;;4967616;28;20031;-78
2022/09/11 07:49:29;;;;;;;18.48;10.68;;;15.40;99.90;;;;;;4971019;28;20023;-78
2022/09/11 07:51:55;;;;;;;18.90;11.35;;;15.50;99.90;;;;;;4968152;28;20011;-78
2022/09/11 07:54:21;;;;;;;17.13;10.95;;;15.60;99.90;;;;;;4970831;28;20041;-78
2022/09/11 07:56:47;;;;;;;19.33;11.02;;;15.70;99.90;;;;;;4962827;28;20091;-78
2022/09/11 07:59:13;;;;;;;16.75;10.20;;;15.70;99.90;;;;;;4965436;28;20126;-78
2022/09/11 08:01:41;;;;;;;16.02;9.73;;;15.90;99.90;;;;;;4959040;28;20102;-78
2022/09/11 08:04:09;;;;;;;16.40;9.93;;;16.00;99.90;;;;;;4970946;28;20035;-79
2022/09/11 08:06:36;;;;;;;15.07;9.70;;;16.20;99.90;;;;;;4967842;28;20027;-78
2022/09/11 08:09:05;;;;;;;16.80;10.45;;;16.30;99.90;;;;;;4966636;28;20019;-78
2022/09/11 08:11:36;;;;;;;20.92;11.82;;;16.40;99.90;;;;;;4970885;28;20030;-78
2022/09/11 08:14:01;;;;;;;17.40;10.35;;;16.40;99.90;;;;;;4970492;28;20027;-78
2022/09/11 08:16:28;;;;;;;17.25;10.60;;;16.50;99.90;;;;;;4970612;28;20109;-77
2022/09/11 08:18:54;;;;;;;14.93;10.35;;;16.70;99.90;;;;;;4971026;28;20558;-78
2022/09/11 08:21:21;;;;;;;12.50;9.05;;;16.80;99.90;;;;;;4970681;28;20110;-78
2022/09/11 08:23:47;;;;;;;16.48;9.55;;;16.90;99.90;;;;;;4970942;28;20476;-78
2022/09/11 08:26:21;;;;;;;13.77;8.93;;;17.00;99.90;;;;;;4974432;28;20058;-79
2022/09/11 08:28:49;;;;;;;12.43;8.80;;;17.20;99.90;;;;;;4962793;28;20062;-78
2022/09/11 09:30:58;;;;;;;9.00;5.70;;;20.90;99.90;;;;;;5515266;22;20046;-76
2022/09/11 09:33:34;;;;;;;10.65;5.97;;;21.10;99.90;;;;;;4989338;28;20022;-77
2022/09/11 09:36:22;;;;;;;7.43;5.85;;;21.20;99.90;;;;;;4986617;28;20058;-77
2022/09/11 09:38:48;;;;;;;8.77;5.95;;;21.50;99.90;;;;;;4982212;28;20034;-77
2022/09/11 09:41:32;;;;;;;9.00;6.20;;;21.60;99.90;;;;;;4992624;28;20022;-77
2022/09/11 09:44:22;;;;;;;9.18;5.22;;;21.90;99.90;;;;;;4992272;28;20033;-77
2022/09/11 09:46:52;;;;;;;7.38;4.65;;;22.70;94.80;;;;;;4968784;28;20027;-76
2022/09/11 09:49:28;;;;;;;8.40;4.40;;;23.50;86.10;;;;;;4985889;28;20025;-77
2022/09/11 09:51:57;;;;;;;5.10;2.85;;;24.30;78.20;;;;;;4989372;28;20030;-77
2022/09/11 09:54:28;;;;;;;5.40;2.85;;;25.50;67.80;;;;;;4992058;28;20026;-76
2022/09/11 09:57:04;;;;;;;6.28;2.58;;;26.80;65.30;;;;;;4992914;28;20412;-77
2022/09/11 09:59:39;;;;;;;5.43;2.10;;;27.90;58.90;;;;;;4966172;28;20050;-78
2022/09/11 10:02:06;;;;;;;2.63;1.80;;;28.90;57.50;;;;;;4986326;28;20041;-77
2022/09/11 10:04:32;;;;;;;7.85;1.80;;;30.00;53.30;;;;;;4988812;28;20018;-78
2022/09/11 10:07:09;;;;;;;4.93;2.00;;;31.40;49.20;;;;;;4992538;28;20038;-77
2022/09/11 10:10:36;;;;;;;5.35;1.83;;;30.90;43.60;;;;;;5100506;27;20378;-77
2022/09/11 10:13:19;;;;;;;4.13;1.70;;;31.50;45.20;;;;;;5084386;28;20021;-78
2022/09/11 10:15:48;;;;;;;5.28;2.20;;;31.10;46.70;;;;;;5088498;28;20013;-78
2022/09/11 10:18:44;;;;;;;3.78;1.77;;;31.30;47.00;;;;;;5088259;28;20024;-79
2022/09/11 10:21:12;;;;;;;2.42;1.80;;;32.30;44.30;;;;;;5079543;28;20043;-77
2022/09/11 10:23:59;;;;;;;2.60;1.48;;;31.10;44.20;;;;;;5088835;28;20027;-77
2022/09/11 10:26:34;;;;;;;2.85;1.98;;;29.80;47.90;;;;;;5088345;28;20028;-77
2022/09/11 10:29:26;;;;;;;6.32;2.13;;;28.60;48.00;;;;;;5088236;28;20496;-77
2022/09/11 10:31:58;;;;;;;2.97;1.98;;;27.50;52.60;;;;;;5085058;28;20024;-77
2022/09/11 10:34:27;;;;;;;4.18;2.30;;;26.80;55.30;;;;;;5088285;28;20059;-76
2022/09/11 10:37:06;;;;;;;3.20;1.90;;;26.60;57.00;;;;;;5088165;28;20023;-77
2022/09/11 10:39:35;;;;;;;2.85;1.90;;;27.80;54.40;;;;;;5087126;28;20024;-78
2022/09/11 10:42:11;;;;;;;3.35;1.55;;;30.10;49.90;;;;;;5087586;28;20499;-78
2022/09/11 10:44:43;;;;;;;2.38;1.52;;;31.30;47.20;;;;;;5086617;28;20020;-77
2022/09/11 10:47:31;;;;;;;4.45;1.55;;;31.90;41.40;;;;;;5087619;28;20016;-76
2022/09/11 10:50:18;;;;;;;7.45;1.85;;;31.10;43.30;;;;;;5087843;28;20396;-77
2022/09/11 10:52:57;;;;;;;6.22;1.70;;;29.80;44.50;;;;;;5088328;28;20530;-77
2022/09/11 10:55:32;;;;;;;8.13;1.40;;;29.10;46.10;;;;;;5088147;28;20032;-77
2022/09/11 10:58:15;;;;;;;4.68;2.08;;;29.00;50.50;;;;;;5086964;28;20111;-77
